createdAt,value
2023-01-13T00:01:24.831Z,7.10
2023-01-13T00:03:52.662Z,7.60
2023-01-13T00:06:21.843Z,8.20
2023-01-13T00:08:50.220Z,7.00
2023-01-13T00:11:18.469Z,6.50
2023-01-13T00:13:46.604Z,7.30
2023-01-13T00:16:16.258Z,7.80
2023-01-13T00:18:44.418Z,7.10
2023-01-13T00:21:16.713Z,7.00
2023-01-13T00:23:45.175Z,7.20
2023-01-13T00:26:14.871Z,7.30
2023-01-13T00:28:43.249Z,7.80
2023-01-13T00:31:11.055Z,7.50
2023-01-13T00:33:39.389Z,7.00
2023-01-13T00:36:08.280Z,7.50
2023-01-13T00:38:36.275Z,7.00
2023-01-13T00:41:12.802Z,7.60
2023-01-13T00:43:40.561Z,6.50
2023-01-13T00:46:09.426Z,7.70
2023-01-13T00:48:37.989Z,7.90
2023-01-13T00:51:07.180Z,7.40
2023-01-13T00:53:36.721Z,7.30
2023-01-13T00:56:10.547Z,7.20
2023-01-13T00:58:42.004Z,7.80
2023-01-13T01:01:11.239Z,6.90
2023-01-13T01:03:39.558Z,7.60
2023-01-13T01:06:08.759Z,7.70
2023-01-13T01:08:36.965Z,8.10
2023-01-13T01:11:08.932Z,7.20
2023-01-13T01:13:37.378Z,7.50
2023-01-13T01:16:07.302Z,7.30
2023-01-13T01:18:35.903Z,7.60
2023-01-13T01:21:04.263Z,7.50
2023-01-13T01:23:32.520Z,7.90
2023-01-13T01:26:01.452Z,7.10
2023-01-13T01:28:29.264Z,7.60
2023-01-13T01:30:58.652Z,6.80
2023-01-13T01:33:26.977Z,7.40
2023-01-13T01:36:02.434Z,6.50
2023-01-13T01:38:30.450Z,7.50
2023-01-13T01:40:58.579Z,7.70
2023-01-13T01:44:02.915Z,6.70
2023-01-13T01:46:30.799Z,6.50
2023-01-13T01:49:17.665Z,6.90
2023-01-13T01:51:46.915Z,7.10
2023-01-13T01:54:17.732Z,6.30
2023-01-13T01:56:46.539Z,6.30
2023-01-13T01:59:15.057Z,6.10
2023-01-13T02:01:43.417Z,5.50
2023-01-13T02:04:16.374Z,6.90
2023-01-13T02:06:45.901Z,6.30
2023-01-13T02:09:14.251Z,6.70
2023-01-13T02:12:00.917Z,6.20
2023-01-13T02:14:29.700Z,5.70
2023-01-13T02:17:27.600Z,6.80
2023-01-13T02:19:55.342Z,6.90
2023-01-13T02:22:52.515Z,6.80
2023-01-13T02:25:38.962Z,7.00
2023-01-13T02:28:26.494Z,6.90
2023-01-13T02:31:18.927Z,7.10
2023-01-13T02:34:01.560Z,7.60
2023-01-13T02:36:50.034Z,7.00
2023-01-13T02:39:30.030Z,7.50
2023-01-13T02:42:35.985Z,6.90
2023-01-13T02:45:06.918Z,7.40
2023-01-13T02:47:37.093Z,7.90
2023-01-13T02:50:17.693Z,9.20
2023-01-13T02:53:06.380Z,8.20
2023-01-13T02:55:46.405Z,7.70
2023-01-13T02:58:23.124Z,7.70
2023-01-13T03:00:52.399Z,8.50
2023-01-13T03:03:20.277Z,8.30
2023-01-13T03:05:48.916Z,7.70
2023-01-13T03:08:27.503Z,7.60
2023-01-13T03:11:03.398Z,8.20
2023-01-13T03:13:49.979Z,7.30
2023-01-13T03:16:44.785Z,7.10
2023-01-13T03:19:12.477Z,8.10
2023-01-13T03:21:43.190Z,7.20
2023-01-13T03:24:22.708Z,7.20
2023-01-13T03:26:56.714Z,7.50
2023-01-13T03:32:04.405Z,8.60
2023-01-13T03:34:34.581Z,7.60
2023-01-13T03:37:03.652Z,7.70
2023-01-13T03:39:33.160Z,7.70
2023-01-13T03:42:04.689Z,7.90
2023-01-13T03:44:34.332Z,7.30
2023-01-13T03:47:23.543Z,8.00
2023-01-13T03:50:02.337Z,7.00
2023-01-13T03:52:36.842Z,7.40
2023-01-13T03:55:13.376Z,8.70
2023-01-13T03:58:11.060Z,8.10
2023-01-13T04:00:42.916Z,7.30
2023-01-13T04:03:12.099Z,7.90
2023-01-13T04:05:42.168Z,7.70
2023-01-13T04:08:16.900Z,8.00
2023-01-13T04:10:46.850Z,7.90
2023-01-13T04:13:21.701Z,7.30
2023-01-13T04:15:50.068Z,7.40
2023-01-13T04:18:23.475Z,8.30
2023-01-13T04:20:53.157Z,7.80
2023-01-13T04:23:21.621Z,7.20
2023-01-13T04:25:49.770Z,7.10
2023-01-13T04:28:18.240Z,6.40
2023-01-13T04:30:52.373Z,6.60
2023-01-13T04:33:20.483Z,7.10
2023-01-13T04:35:50.471Z,6.50
2023-01-13T04:38:19.337Z,7.60
2023-01-13T04:40:47.100Z,7.10
2023-01-13T04:43:16.025Z,7.40
2023-01-13T04:45:44.332Z,8.10
2023-01-13T04:48:12.205Z,7.40
2023-01-13T04:50:41.271Z,6.20
2023-01-13T04:53:08.947Z,6.30
2023-01-13T04:55:36.770Z,7.20
2023-01-13T04:58:05.528Z,6.70
2023-01-13T05:00:33.467Z,5.80
2023-01-13T05:03:01.217Z,5.90
2023-01-13T05:05:30.339Z,5.60
2023-01-13T05:07:58.507Z,6.40
2023-01-13T05:10:26.943Z,5.90
2023-01-13T05:13:13.568Z,6.30
2023-01-13T05:16:00.994Z,5.60
2023-01-13T05:18:29.783Z,5.70
2023-01-13T05:20:57.841Z,6.20
2023-01-13T05:23:44.525Z,4.80
2023-01-13T05:26:12.389Z,4.40
2023-01-13T05:28:40.177Z,5.30
2023-01-13T05:31:07.860Z,4.90
2023-01-13T05:33:42.149Z,4.80
2023-01-13T05:36:09.943Z,4.80
2023-01-13T05:38:37.718Z,4.40
2023-01-13T05:41:24.352Z,5.60
2023-01-13T05:43:52.110Z,4.30
2023-01-13T05:46:19.930Z,4.50
2023-01-13T05:48:48.184Z,4.40
2023-01-13T05:51:15.956Z,4.10
2023-01-13T05:53:43.717Z,4.50
2023-01-13T05:56:11.540Z,4.70
2023-01-13T05:58:39.489Z,4.00
2023-01-13T06:01:08.496Z,4.60
2023-01-13T06:03:36.660Z,4.10
2023-01-13T06:06:05.084Z,4.70
2023-01-13T06:08:32.888Z,4.30
2023-01-13T06:11:00.727Z,4.30
2023-01-13T06:13:28.588Z,4.90
2023-01-13T06:15:57.824Z,5.50
2023-01-13T06:18:26.556Z,5.60
2023-01-13T06:20:54.331Z,4.70
2023-01-13T06:23:22.541Z,3.60
2023-01-13T06:26:00.645Z,4.00
2023-01-13T06:28:28.477Z,4.00
2023-01-13T06:31:05.995Z,4.40
2023-01-13T06:33:37.249Z,5.50
2023-01-13T06:36:07.596Z,5.80
2023-01-13T06:38:37.842Z,8.00
2023-01-13T06:41:07.134Z,5.40
2023-01-13T06:43:34.910Z,5.00
2023-01-13T06:46:03.205Z,5.30
2023-01-13T06:48:34.210Z,5.10
2023-01-13T06:51:02.760Z,4.90
2023-01-13T06:53:31.049Z,4.60
2023-01-13T06:55:59.097Z,5.20
2023-01-13T06:58:28.125Z,6.40
2023-01-13T07:00:59.679Z,7.20
2023-01-13T07:03:29.294Z,5.00
2023-01-13T07:06:00.102Z,5.10
2023-01-13T07:08:28.596Z,5.10
2023-01-13T07:10:56.578Z,4.70
2023-01-13T07:13:43.576Z,5.10
2023-01-13T07:16:13.653Z,5.90
2023-01-13T07:18:41.488Z,6.20
2023-01-13T07:21:10.562Z,6.30
2023-01-13T07:23:39.832Z,6.90
2023-01-13T07:26:11.192Z,6.70
2023-01-13T07:28:40.044Z,5.60
2023-01-13T07:31:23.195Z,5.40
2023-01-13T07:33:50.993Z,5.50
2023-01-13T07:36:20.087Z,5.10
2023-01-13T07:38:47.914Z,5.30
2023-01-13T07:41:34.651Z,5.70
2023-01-13T07:44:06.146Z,5.90
2023-01-13T07:46:34.167Z,6.50
2023-01-13T07:49:01.881Z,5.90
2023-01-13T07:51:30.839Z,5.80
2023-01-13T07:53:58.629Z,5.90
2023-01-13T07:56:26.366Z,5.20
2023-01-13T07:58:54.244Z,4.80
2023-01-13T08:01:25.299Z,5.70
2023-01-13T08:03:53.551Z,6.00
2023-01-13T08:06:21.801Z,5.90
2023-01-13T08:08:49.658Z,5.50
2023-01-13T08:11:17.496Z,5.10
2023-01-13T08:13:45.507Z,6.40
2023-01-13T08:16:14.752Z,5.50
2023-01-13T08:18:43.077Z,5.60
2023-01-13T08:21:14.654Z,5.60
2023-01-13T08:23:44.420Z,5.80
2023-01-13T08:26:16.257Z,5.40
2023-01-13T08:28:44.247Z,5.40
2023-01-13T08:31:13.621Z,5.70
2023-01-13T08:33:41.561Z,5.00
2023-01-13T08:36:10.457Z,5.50
2023-01-13T08:38:40.260Z,6.10
2023-01-13T08:41:09.099Z,6.90
2023-01-13T08:43:36.984Z,6.10
2023-01-13T08:46:05.120Z,6.10
2023-01-13T08:48:33.173Z,5.10
2023-01-13T08:51:01.861Z,5.50
2023-01-13T08:53:36.036Z,6.20
2023-01-13T08:56:07.351Z,5.20
2023-01-13T08:58:35.056Z,5.80
2023-01-13T09:01:06.635Z,5.50
2023-01-13T09:03:55.856Z,6.10
2023-01-13T09:06:23.739Z,5.50
2023-01-13T09:08:58.396Z,5.60
2023-01-13T09:11:53.194Z,5.70
2023-01-13T09:16:55.876Z,5.80
2023-01-13T09:19:28.694Z,7.20
2023-01-13T09:21:57.130Z,6.00
2023-01-13T09:24:25.071Z,5.40
2023-01-13T09:26:52.875Z,5.40
2023-01-13T09:29:20.657Z,6.00
2023-01-13T09:31:48.388Z,6.20
2023-01-13T09:34:36.625Z,5.60
2023-01-13T09:37:06.084Z,5.20
2023-01-13T09:39:34.916Z,5.20
2023-01-13T09:42:23.644Z,5.20
2023-01-13T09:45:07.376Z,5.80
2023-01-13T09:47:48.496Z,6.00
2023-01-13T09:50:32.132Z,6.50
2023-01-13T09:53:00.712Z,5.60
2023-01-13T09:55:32.727Z,5.80
2023-01-13T09:58:10.990Z,6.20
2023-01-13T10:00:44.729Z,5.60
2023-01-13T10:03:12.490Z,6.00
2023-01-13T10:05:59.434Z,5.40
2023-01-13T10:08:29.875Z,5.80
2023-01-13T10:10:59.662Z,5.90
2023-01-13T10:13:29.091Z,6.10
2023-01-13T10:15:56.917Z,6.70
2023-01-13T10:18:44.020Z,6.70
2023-01-13T10:21:34.456Z,6.00
2023-01-13T10:24:04.019Z,6.40
2023-01-13T10:26:47.155Z,6.60
2023-01-13T10:29:25.188Z,8.00
2023-01-13T10:31:56.633Z,6.50
2023-01-13T10:34:25.336Z,6.90
2023-01-13T10:37:07.475Z,6.60
2023-01-13T10:39:46.045Z,6.00
2023-01-13T10:42:15.747Z,6.20
2023-01-13T10:45:03.987Z,6.70
2023-01-13T10:47:32.990Z,6.40
2023-01-13T10:50:06.732Z,6.00
2023-01-13T10:52:38.368Z,7.50
2023-01-13T10:55:25.606Z,8.20
2023-01-13T10:57:53.450Z,6.80
2023-01-13T11:00:35.000Z,5.80
2023-01-13T11:03:14.710Z,6.40
2023-01-13T11:05:48.664Z,5.60
2023-01-13T11:10:56.461Z,6.70
2023-01-13T11:13:28.275Z,7.10
2023-01-13T11:16:03.701Z,7.10
2023-01-13T11:18:39.861Z,6.10
2023-01-13T11:21:12.420Z,6.40
2023-01-13T11:23:43.348Z,6.70
2023-01-13T11:26:28.745Z,5.60
2023-01-13T11:29:02.672Z,6.80
2023-01-13T11:31:33.609Z,8.60
2023-01-13T11:34:06.995Z,6.90
2023-01-13T11:36:38.776Z,7.10
2023-01-13T11:39:25.539Z,7.10
2023-01-13T11:42:18.435Z,6.50
2023-01-13T11:45:00.145Z,5.90
2023-01-13T11:47:29.222Z,6.20
2023-01-13T11:49:58.075Z,6.30
2023-01-13T11:52:28.210Z,6.80
2023-01-13T11:55:00.669Z,6.70
2023-01-13T11:57:51.784Z,6.40
2023-01-13T12:00:33.779Z,6.40
2023-01-13T12:03:05.717Z,6.30
2023-01-13T12:05:59.919Z,6.90
2023-01-13T12:08:52.886Z,7.10
2023-01-13T12:12:01.663Z,7.30
2023-01-13T12:14:40.594Z,6.70
2023-01-13T12:17:13.498Z,5.90
2023-01-13T12:19:46.061Z,6.80
2023-01-13T12:22:18.676Z,6.40
2023-01-13T12:25:23.121Z,5.30
2023-01-13T12:28:14.066Z,6.00
2023-01-13T12:30:50.867Z,6.70
2023-01-13T12:33:32.177Z,6.20
2023-01-13T12:36:20.319Z,6.20
2023-01-13T12:38:50.338Z,6.40
2023-01-13T12:41:33.759Z,6.00
2023-01-13T12:44:18.034Z,6.50
2023-01-13T12:46:53.223Z,6.60
2023-01-13T12:49:22.772Z,6.10
2023-01-13T12:51:53.714Z,6.30
2023-01-13T12:54:31.087Z,6.30
2023-01-13T12:57:00.241Z,6.10
2023-01-13T12:59:28.660Z,6.00
2023-01-13T13:02:24.185Z,6.80
2023-01-13T13:04:56.783Z,6.70
2023-01-13T13:07:30.669Z,6.50
2023-01-13T13:13:09.682Z,6.50
2023-01-13T13:15:37.648Z,6.20
2023-01-13T13:18:08.834Z,7.10
2023-01-13T13:20:55.705Z,7.00
2023-01-13T13:23:33.706Z,6.30
2023-01-13T13:26:26.265Z,6.50
2023-01-13T13:28:57.169Z,6.70
2023-01-13T13:31:30.894Z,5.90
2023-01-13T13:34:08.506Z,5.90
2023-01-13T13:36:47.127Z,5.60
2023-01-13T13:39:39.681Z,5.50
2023-01-13T13:42:35.788Z,6.20
2023-01-13T13:45:33.604Z,6.40
2023-01-13T13:48:18.385Z,7.50
2023-01-13T13:50:50.611Z,7.80
2023-01-13T13:53:20.146Z,6.80
2023-01-13T13:55:56.145Z,7.50
2023-01-13T13:58:26.323Z,7.20
2023-01-13T14:00:54.702Z,7.00
2023-01-13T14:03:28.914Z,7.70
2023-01-13T14:05:59.429Z,6.20
2023-01-13T14:08:28.088Z,6.30
2023-01-13T14:10:56.391Z,7.20
2023-01-13T14:13:25.847Z,6.70
2023-01-13T14:15:56.865Z,7.50
2023-01-13T14:18:25.924Z,7.00
2023-01-13T14:20:55.978Z,6.70
2023-01-13T14:23:26.673Z,7.10
2023-01-13T14:25:54.836Z,8.20
2023-01-13T14:28:23.009Z,6.50
2023-01-13T14:30:54.896Z,9.70
2023-01-13T14:33:34.292Z,7.20
2023-01-13T14:36:20.387Z,7.60
2023-01-13T14:38:50.487Z,7.20
2023-01-13T14:41:19.839Z,8.60
2023-01-13T14:44:10.957Z,7.60
2023-01-13T14:46:44.685Z,8.30
2023-01-13T14:49:22.331Z,8.60
2023-01-13T14:51:53.388Z,8.00
2023-01-13T14:54:55.559Z,8.00
2023-01-13T14:57:25.376Z,13.00
2023-01-13T14:59:56.188Z,26.60
2023-01-13T15:02:30.170Z,14.70
2023-01-13T15:05:24.978Z,37.30
2023-01-13T15:07:56.365Z,32.10
2023-01-13T15:10:29.804Z,13.60
2023-01-13T15:13:01.105Z,67.30
2023-01-13T15:15:30.717Z,70.10
2023-01-13T15:18:00.590Z,43.40
2023-01-13T15:20:29.756Z,37.10
2023-01-13T15:22:59.744Z,13.90
2023-01-13T15:25:31.824Z,33.10
2023-01-13T15:28:01.141Z,88.70
2023-01-13T15:30:30.946Z,12.60
2023-01-13T15:33:01.453Z,12.70
2023-01-13T15:35:31.092Z,11.50
2023-01-13T15:38:00.931Z,11.90
2023-01-13T15:40:32.124Z,11.90
2023-01-13T15:43:19.274Z,9.70
2023-01-13T15:46:06.728Z,8.90
2023-01-13T15:48:55.557Z,9.10
2023-01-13T15:51:29.625Z,8.70
2023-01-13T15:54:00.864Z,8.90
2023-01-13T15:56:38.251Z,9.30
2023-01-13T15:59:10.580Z,11.60
2023-01-13T16:01:38.643Z,10.60
2023-01-13T16:04:06.940Z,11.60
2023-01-13T16:06:36.400Z,23.80
2023-01-13T16:09:04.687Z,61.10
2023-01-13T16:11:32.575Z,18.30
2023-01-13T16:14:00.447Z,14.60
2023-01-13T16:16:28.956Z,16.00
2023-01-13T16:18:57.517Z,16.40
2023-01-13T16:21:31.873Z,19.20
2023-01-13T16:23:59.913Z,13.30
2023-01-13T16:26:30.043Z,11.60
2023-01-13T16:29:00.214Z,12.10
2023-01-13T16:31:32.161Z,9.40
2023-01-13T16:34:01.401Z,9.80
2023-01-13T16:36:30.508Z,10.10
2023-01-13T16:38:58.348Z,9.30
2023-01-13T16:41:26.217Z,11.30
2023-01-13T16:43:54.049Z,11.70
2023-01-13T16:46:21.770Z,8.90
2023-01-13T16:48:50.664Z,9.00
2023-01-13T16:51:22.868Z,7.90
2023-01-13T16:53:51.456Z,6.90
2023-01-13T16:56:30.898Z,7.90
2023-01-13T16:59:00.113Z,7.60
2023-01-13T17:01:29.387Z,7.70
2023-01-13T17:03:57.979Z,8.30
2023-01-13T17:06:25.965Z,8.90
2023-01-13T17:09:04.694Z,9.80
2023-01-13T17:11:32.574Z,9.90
2023-01-13T17:14:00.321Z,10.50
2023-01-13T17:16:28.337Z,13.20
2023-01-13T17:18:56.325Z,11.90
2023-01-13T17:21:24.515Z,13.70
2023-01-13T17:23:52.458Z,11.90
2023-01-13T17:26:29.539Z,12.00
2023-01-13T17:28:57.497Z,9.50
2023-01-13T17:31:25.217Z,9.10
2023-01-13T17:33:53.068Z,9.30
2023-01-13T17:36:20.944Z,9.80
2023-01-13T17:38:48.645Z,9.70
2023-01-13T17:41:16.339Z,10.40
2023-01-13T17:43:45.909Z,13.40
2023-01-13T17:46:19.407Z,13.30
2023-01-13T17:48:48.288Z,11.80
2023-01-13T17:51:16.527Z,12.30
2023-01-13T17:53:45.630Z,12.50
2023-01-13T17:56:14.430Z,12.60
2023-01-13T17:58:42.192Z,11.90
2023-01-13T18:01:17.120Z,11.80
2023-01-13T18:03:45.512Z,10.70
2023-01-13T18:06:18.202Z,12.00
2023-01-13T18:08:46.595Z,13.30
2023-01-13T18:11:16.018Z,14.20
2023-01-13T18:14:11.810Z,13.30
2023-01-13T18:16:39.724Z,13.30
2023-01-13T18:19:26.614Z,16.20
2023-01-13T18:22:13.530Z,16.10
2023-01-13T18:25:05.002Z,16.70
2023-01-13T18:27:43.474Z,13.10
2023-01-13T18:30:15.093Z,12.40
2023-01-13T18:32:49.991Z,11.20
2023-01-13T18:35:18.554Z,11.10
2023-01-13T18:37:46.768Z,12.80
2023-01-13T18:40:16.660Z,13.40
2023-01-13T18:42:54.931Z,14.70
2023-01-13T18:45:28.343Z,13.60
2023-01-13T18:47:57.476Z,15.00
2023-01-13T18:50:28.620Z,14.10
2023-01-13T18:52:56.801Z,11.90
2023-01-13T18:55:44.988Z,12.30
2023-01-13T18:58:13.681Z,11.20
2023-01-13T19:01:06.553Z,13.20
2023-01-13T19:03:35.578Z,11.20
2023-01-13T19:08:42.295Z,11.30
2023-01-13T19:11:31.755Z,9.90
2023-01-13T19:14:00.479Z,10.50
2023-01-13T19:16:30.749Z,10.00
2023-01-13T19:19:01.359Z,9.70
2023-01-13T19:21:29.973Z,9.80
2023-01-13T19:23:57.748Z,10.60
2023-01-13T19:26:25.970Z,10.30
2023-01-13T19:28:53.954Z,10.00
2023-01-13T19:31:21.830Z,12.00
2023-01-13T19:34:11.083Z,9.70
2023-01-13T19:36:38.907Z,10.40
2023-01-13T19:39:06.644Z,11.60
2023-01-13T19:41:55.375Z,11.20
2023-01-13T19:44:42.121Z,9.60
2023-01-13T19:47:10.483Z,13.80
2023-01-13T19:49:39.070Z,13.00
2023-01-13T19:52:14.156Z,18.70
2023-01-13T19:54:44.848Z,11.90
2023-01-13T19:57:13.279Z,10.30
2023-01-13T19:59:48.389Z,10.40
2023-01-13T20:02:53.622Z,9.70
2023-01-13T20:05:29.527Z,9.50
2023-01-13T20:08:04.578Z,8.70
2023-01-13T20:10:35.405Z,10.30
2023-01-13T20:13:04.897Z,9.80
2023-01-13T20:15:37.187Z,10.20
2023-01-13T20:18:07.722Z,11.20
2023-01-13T20:20:38.311Z,11.20
2023-01-13T20:23:26.795Z,9.20
2023-01-13T20:25:57.537Z,9.90
2023-01-13T20:28:27.950Z,10.90
2023-01-13T20:31:08.261Z,10.10
2023-01-13T20:33:39.789Z,9.30
2023-01-13T20:36:08.944Z,9.00
2023-01-13T20:38:40.332Z,8.20
2023-01-13T20:41:27.454Z,7.40
2023-01-13T20:43:56.596Z,7.00
2023-01-13T20:46:24.901Z,9.00
2023-01-13T20:48:53.497Z,7.10
2023-01-13T20:51:26.141Z,7.70
2023-01-13T20:53:56.079Z,8.10
2023-01-13T20:56:25.331Z,9.60
2023-01-13T20:58:53.489Z,9.60
2023-01-13T21:01:21.882Z,9.20
2023-01-13T21:03:57.837Z,8.80
2023-01-13T21:06:32.412Z,8.00
2023-01-13T21:09:23.887Z,8.60
2023-01-13T21:12:10.699Z,7.20
2023-01-13T21:14:58.012Z,8.70
2023-01-13T21:18:05.009Z,7.20
2023-01-13T21:20:34.106Z,7.70
2023-01-13T21:23:03.639Z,7.20
2023-01-13T21:25:52.095Z,6.60
2023-01-13T21:28:25.475Z,8.20
2023-01-13T21:30:53.991Z,7.80
2023-01-13T21:33:41.622Z,7.20
2023-01-13T21:36:29.447Z,6.50
2023-01-13T21:38:58.588Z,7.60
2023-01-13T21:41:45.734Z,6.60
2023-01-13T21:44:38.594Z,7.00
2023-01-13T21:47:46.984Z,7.30
2023-01-13T21:50:16.211Z,8.40
2023-01-13T21:52:44.993Z,8.70
2023-01-13T21:55:25.941Z,8.10
2023-01-13T21:57:58.395Z,7.60
2023-01-13T22:00:30.559Z,7.30
2023-01-13T22:03:01.511Z,7.60
2023-01-13T22:05:29.809Z,7.90
2023-01-13T22:07:57.711Z,7.90
2023-01-13T22:10:27.052Z,8.00
2023-01-13T22:12:55.639Z,8.20
2023-01-13T22:15:29.674Z,6.90
2023-01-13T22:17:57.634Z,7.90
2023-01-13T22:20:25.933Z,7.60
2023-01-13T22:22:53.927Z,7.70
2023-01-13T22:25:21.939Z,7.80
2023-01-13T22:27:50.405Z,7.50
2023-01-13T22:30:21.749Z,8.30
2023-01-13T22:32:50.213Z,7.30
2023-01-13T22:35:18.040Z,8.10
2023-01-13T22:37:45.831Z,6.70
2023-01-13T22:40:14.089Z,8.40
2023-01-13T22:42:42.606Z,6.80
2023-01-13T22:45:12.031Z,7.70
2023-01-13T22:47:39.883Z,7.20
2023-01-13T22:50:08.247Z,7.20
2023-01-13T22:52:36.389Z,6.80
2023-01-13T22:55:10.349Z,7.40
2023-01-13T22:57:47.202Z,7.60
2023-01-13T23:00:18.770Z,7.40
2023-01-13T23:02:46.960Z,7.00
2023-01-13T23:05:14.862Z,7.30
2023-01-13T23:07:42.653Z,9.40
2023-01-13T23:10:11.211Z,7.50
2023-01-13T23:12:38.999Z,7.90
2023-01-13T23:15:06.908Z,7.80
2023-01-13T23:17:34.888Z,7.20
2023-01-13T23:20:03.028Z,6.80
2023-01-13T23:22:30.752Z,7.20
2023-01-13T23:24:58.569Z,7.20
2023-01-13T23:27:26.540Z,7.00
2023-01-13T23:29:56.005Z,7.70
2023-01-13T23:32:24.011Z,6.60
2023-01-13T23:34:51.708Z,6.20
2023-01-13T23:37:19.333Z,7.20
2023-01-13T23:39:47.009Z,7.60
2023-01-13T23:42:14.797Z,6.70
2023-01-13T23:44:42.514Z,7.10
2023-01-13T23:47:12.161Z,7.50
2023-01-13T23:49:40.916Z,7.50
2023-01-13T23:52:08.686Z,7.60
2023-01-13T23:54:36.582Z,6.20
2023-01-13T23:57:11.251Z,7.00
2023-01-13T23:59:39.134Z,6.00
